createdAt,value
2017-08-23T10:56:09.067Z,10888
2017-08-23T10:56:49.627Z,10964
2017-08-23T10:57:30.177Z,10988
2017-08-23T10:58:10.730Z,11016
2017-08-23T10:58:51.488Z,11040
2017-08-23T10:59:32.033Z,11104
2017-08-23T11:00:12.575Z,11160
2017-08-23T11:00:53.128Z,11236
2017-08-23T11:01:33.678Z,11316
2017-08-23T11:02:14.273Z,11456
2017-08-23T11:02:54.804Z,11732
2017-08-23T11:03:35.353Z,12072
2017-08-23T11:04:15.901Z,12684
2017-08-23T11:04:56.467Z,16096
2017-08-23T11:05:36.995Z,24832
2017-08-23T11:06:17.547Z,46528
2017-08-23T11:06:58.096Z,62048
2017-08-23T11:07:38.747Z,74496
2017-08-23T11:08:19.297Z,78272
2017-08-23T11:08:59.849Z,80096
2017-08-23T11:09:40.408Z,85184
2017-08-23T11:10:20.956Z,86400
2017-08-23T11:11:01.505Z,80576
2017-08-23T11:11:42.054Z,87552
2017-08-23T11:12:22.599Z,92480
2017-08-23T11:13:03.147Z,89248
2017-08-23T11:13:43.695Z,84160
2017-08-23T11:14:24.246Z,85216
2017-08-23T11:15:04.784Z,88480
2017-08-23T11:15:45.333Z,88800
2017-08-23T11:16:25.888Z,84672
2017-08-23T11:17:06.435Z,86368
2017-08-23T11:17:46.976Z,90464
2017-08-23T11:18:27.527Z,91872
2017-08-23T11:19:08.078Z,92032
2017-08-23T11:19:48.629Z,86720
2017-08-23T11:20:29.175Z,87584
2017-08-23T11:21:09.780Z,92288
2017-08-23T11:21:50.325Z,95488
2017-08-23T11:22:30.869Z,90816
2017-08-23T11:23:11.418Z,88832
2017-08-23T11:23:51.961Z,92576
2017-08-23T11:24:32.507Z,98624
2017-08-23T11:25:13.062Z,92896
2017-08-23T11:25:53.614Z,88928
2017-08-23T11:26:34.191Z,91712
2017-08-23T11:27:14.736Z,98144
2017-08-23T11:27:55.306Z,99200
2017-08-23T11:28:35.908Z,93280
2017-08-23T11:29:16.457Z,88640
2017-08-23T11:29:56.993Z,93056
2017-08-23T11:30:37.534Z,97984
2017-08-23T11:31:18.073Z,99904
2017-08-23T11:31:58.616Z,97632
2017-08-23T11:32:39.161Z,95360
2017-08-23T11:33:19.704Z,96224
2017-08-23T11:34:00.247Z,99456
2017-08-23T11:34:40.789Z,96352
2017-08-23T11:35:21.343Z,95424
2017-08-23T11:36:01.891Z,91904
2017-08-23T11:36:42.436Z,67040
2017-08-23T11:37:22.987Z,34304
2017-08-23T11:38:03.531Z,14752
2017-08-23T11:38:44.177Z,13084
2017-08-23T11:39:25.705Z,12596
2017-08-23T11:40:06.385Z,12384
2017-08-23T11:40:47.007Z,12292
2017-08-23T11:41:27.549Z,10792
2017-08-23T11:42:08.095Z,11772
2017-08-23T11:42:48.637Z,12272
2017-08-23T11:43:29.191Z,11848
2017-08-23T11:44:09.834Z,11948
2017-08-23T11:44:50.448Z,12380
2017-08-23T11:45:31.048Z,12652
2017-08-23T11:46:11.649Z,12712
2017-08-23T11:46:53.128Z,12404
2017-08-23T11:47:33.672Z,12032
2017-08-23T11:48:14.445Z,11348
2017-08-23T11:48:55.190Z,10616
2017-08-23T11:49:35.725Z,11772
2017-08-23T11:50:16.344Z,12652
2017-08-23T11:50:56.974Z,13552
2017-08-23T11:51:37.581Z,13776
2017-08-23T11:52:18.382Z,14416
2017-08-23T11:52:58.927Z,14404
2017-08-23T11:53:39.477Z,14300
2017-08-23T11:54:20.021Z,14056
2017-08-23T11:55:01.535Z,14252
2017-08-23T11:55:42.111Z,13416
2017-08-23T11:56:22.791Z,10492
2017-08-23T11:57:03.318Z,10388
2017-08-23T11:57:43.862Z,9960
2017-08-23T11:58:24.537Z,11496
2017-08-23T11:59:05.175Z,10200
2017-08-23T11:59:45.904Z,9444
2017-08-23T12:00:26.631Z,13120
2017-08-23T12:01:07.449Z,12996
2017-08-23T12:01:48.800Z,12384
2017-08-23T12:02:29.257Z,13020
2017-08-23T12:03:09.822Z,12524
2017-08-23T12:03:50.568Z,12672
2017-08-23T12:04:31.071Z,12688
2017-08-23T12:05:11.718Z,13516
2017-08-23T12:05:52.336Z,13568
2017-08-23T12:06:33.063Z,13892
2017-08-23T12:07:13.826Z,14088
2017-08-23T12:07:54.433Z,14364
2017-08-23T12:08:35.000Z,14520
2017-08-23T12:09:15.724Z,14296
2017-08-23T12:09:56.466Z,14420
2017-08-23T12:10:36.991Z,14372
2017-08-23T12:11:17.534Z,14216
2017-08-23T12:11:58.185Z,14244
2017-08-23T12:12:38.847Z,14200
2017-08-23T12:13:19.479Z,14008
2017-08-23T12:14:00.606Z,14240
2017-08-23T12:14:41.356Z,14120
2017-08-23T12:15:22.957Z,14216
2017-08-23T12:16:03.580Z,14136
2017-08-23T12:16:45.064Z,13992
2017-08-23T12:17:25.730Z,14016
2017-08-23T12:18:06.327Z,13872
2017-08-23T12:18:46.931Z,13952
2017-08-23T12:19:27.491Z,13944
2017-08-23T12:20:08.086Z,13940
2017-08-23T12:20:48.721Z,13844
2017-08-23T12:21:29.351Z,13844
2017-08-23T12:22:09.906Z,13956
2017-08-23T12:22:50.542Z,13952
2017-08-23T12:23:31.868Z,13976
2017-08-23T12:24:12.473Z,14080
2017-08-23T12:24:53.035Z,14092
2017-08-23T12:25:33.576Z,14100
2017-08-23T12:26:14.213Z,14120
2017-08-23T12:26:54.756Z,14124
2017-08-23T12:27:35.350Z,14132
2017-08-23T12:28:15.894Z,14136
2017-08-23T12:28:56.441Z,14088
2017-08-23T12:29:37.207Z,14140
2017-08-23T12:30:17.952Z,14108
2017-08-23T12:30:59.304Z,14144
2017-08-23T12:31:39.911Z,14184
2017-08-23T12:32:20.580Z,14172
2017-08-23T12:33:01.413Z,14128
2017-08-23T12:33:42.042Z,14108
2017-08-23T12:34:22.676Z,14084
2017-08-23T12:35:03.467Z,14080
2017-08-23T12:35:44.008Z,14092
2017-08-23T12:36:24.546Z,14044
2017-08-23T12:37:05.093Z,13624
2017-08-23T12:37:45.638Z,13648
2017-08-23T12:38:26.188Z,13504
2017-08-23T12:39:06.746Z,13140
2017-08-23T12:39:47.282Z,13528
2017-08-23T12:40:27.825Z,13848
2017-08-23T12:41:08.370Z,13984
2017-08-23T12:41:48.909Z,14148
2017-08-23T12:42:29.458Z,14232
2017-08-23T12:43:10.026Z,14364
2017-08-23T12:43:50.585Z,14192
2017-08-23T12:44:31.138Z,14288
2017-08-23T12:45:11.693Z,14308
2017-08-23T12:45:52.225Z,14756
2017-08-23T12:46:32.770Z,14988
2017-08-23T12:47:13.318Z,15024
2017-08-23T12:47:53.867Z,14696
2017-08-23T12:48:34.417Z,14620
2017-08-23T12:49:14.947Z,14992
2017-08-23T12:49:55.487Z,14924
2017-08-23T12:50:36.031Z,14724
2017-08-23T12:51:16.575Z,14664
2017-08-23T12:51:57.116Z,14468
2017-08-23T12:52:37.667Z,14356
2017-08-23T12:53:18.213Z,14172
2017-08-23T12:53:58.759Z,14108
2017-08-23T12:54:39.309Z,14008
2017-08-23T12:55:19.859Z,13892
2017-08-23T12:56:00.409Z,13900
2017-08-23T12:56:40.955Z,13796
2017-08-23T12:57:21.505Z,13532
2017-08-23T12:58:02.038Z,13248
2017-08-23T12:58:42.591Z,13400
2017-08-23T12:59:23.148Z,13276
2017-08-23T13:00:03.691Z,13072
2017-08-23T13:00:44.230Z,13112
2017-08-23T13:01:24.779Z,12896
2017-08-23T13:02:05.329Z,12940
2017-08-23T13:02:45.864Z,12784
2017-08-23T13:03:26.444Z,12700
2017-08-23T13:04:06.987Z,12612
2017-08-23T13:04:47.541Z,12584
2017-08-23T13:05:28.076Z,12404
2017-08-23T13:06:08.617Z,12188
2017-08-23T13:06:49.154Z,12096
2017-08-23T13:07:29.696Z,12240
2017-08-23T13:08:10.237Z,12276
2017-08-23T13:08:50.782Z,12284
2017-08-23T13:09:31.331Z,12348
2017-08-23T13:10:11.878Z,12420
2017-08-23T13:10:52.432Z,12372
2017-08-23T13:11:32.973Z,12292
2017-08-23T13:12:13.514Z,12052
2017-08-23T13:12:54.051Z,11596
2017-08-23T13:13:34.580Z,11680
2017-08-23T13:14:15.393Z,11528
2017-08-23T13:14:56.037Z,11720
2017-08-23T13:15:36.762Z,11636
2017-08-23T13:16:17.627Z,11592
2017-08-23T13:16:58.514Z,11548
2017-08-23T13:17:39.188Z,11408
2017-08-23T13:18:19.747Z,11436
2017-08-23T13:19:00.417Z,11192
2017-08-23T13:19:41.005Z,10392
2017-08-23T13:20:21.585Z,10792
2017-08-23T13:21:02.177Z,10504
2017-08-23T13:21:42.971Z,10788
2017-08-23T13:22:23.546Z,13596
2017-08-23T13:23:04.141Z,16928
2017-08-23T13:23:44.665Z,16124
2017-08-23T13:24:26.416Z,13968
2017-08-23T13:25:06.967Z,11028
2017-08-23T13:25:47.628Z,10512
2017-08-23T13:26:28.277Z,9948
2017-08-23T13:27:08.903Z,10484
2017-08-23T13:27:49.579Z,10776
2017-08-23T13:28:30.502Z,9340
2017-08-23T13:29:11.185Z,9136
2017-08-23T13:29:51.780Z,8744
2017-08-23T13:30:32.436Z,7892
2017-08-23T13:31:12.964Z,8036
2017-08-23T13:31:53.707Z,7776
2017-08-23T13:32:34.363Z,8276
2017-08-23T13:33:14.960Z,7820
2017-08-23T13:33:55.626Z,7060
2017-08-23T13:34:36.162Z,7828
2017-08-23T13:35:16.838Z,8324
2017-08-23T13:35:57.457Z,8416
2017-08-23T13:36:38.359Z,7964
2017-08-23T13:37:18.888Z,8456
2017-08-23T13:37:59.503Z,8672
2017-08-23T13:38:40.246Z,9520
2017-08-23T13:39:20.891Z,9520
2017-08-23T13:40:02.165Z,8916
2017-08-23T13:40:42.903Z,8120
2017-08-23T13:41:23.367Z,8192
2017-08-23T13:42:03.904Z,8372
2017-08-23T13:42:44.913Z,8320
2017-08-23T13:43:25.585Z,8696
2017-08-23T13:44:06.173Z,8640
2017-08-23T13:44:46.711Z,8548
2017-08-23T13:45:27.422Z,8264
2017-08-23T13:46:08.244Z,8344
2017-08-23T13:46:48.767Z,8156
2017-08-23T13:47:29.289Z,8244
2017-08-23T13:48:09.807Z,8200
2017-08-23T13:48:50.352Z,8012
2017-08-23T13:49:30.889Z,7860
2017-08-23T13:50:11.656Z,7520
2017-08-23T13:50:52.368Z,7220
2017-08-23T13:51:33.019Z,6812
2017-08-23T13:52:13.771Z,6580
2017-08-23T13:52:54.372Z,6268
2017-08-23T13:53:35.066Z,6224
2017-08-23T13:54:16.045Z,6148
2017-08-23T13:54:56.812Z,5948
2017-08-23T13:55:37.434Z,5868
2017-08-23T13:56:17.967Z,5728
2017-08-23T13:56:58.849Z,5656
2017-08-23T13:57:39.608Z,5564
2017-08-23T13:58:20.283Z,5448
2017-08-23T13:59:01.175Z,5396
2017-08-23T13:59:41.727Z,5380
2017-08-23T14:00:22.275Z,5312
2017-08-23T14:01:02.959Z,5204
2017-08-23T14:01:43.728Z,5132
2017-08-23T14:02:24.334Z,5032
2017-08-23T14:03:05.017Z,4948
2017-08-23T14:03:45.790Z,4852
2017-08-23T14:04:26.599Z,4724
2017-08-23T14:05:07.213Z,4604
2017-08-23T14:05:47.761Z,4532
2017-08-23T14:06:28.304Z,4460
2017-08-23T14:07:08.852Z,4356
2017-08-23T14:07:49.402Z,4276
2017-08-23T14:08:30.045Z,4228
2017-08-23T14:09:10.593Z,4128
2017-08-23T14:09:51.314Z,4096
2017-08-23T14:10:31.873Z,4144
2017-08-23T14:11:12.568Z,4096
2017-08-23T14:11:53.198Z,4088
2017-08-23T14:12:33.840Z,4080
2017-08-23T14:13:14.509Z,4108
2017-08-23T14:13:55.100Z,4156
2017-08-23T14:14:35.852Z,4092
2017-08-23T14:15:16.384Z,4020
2017-08-23T14:15:56.919Z,3984
2017-08-23T14:16:37.455Z,4004
2017-08-23T14:17:17.995Z,3988
2017-08-23T14:17:58.543Z,3988
2017-08-23T14:18:39.082Z,4000
2017-08-23T14:19:19.620Z,3932
2017-08-23T14:20:00.168Z,3888
2017-08-23T14:20:40.709Z,3928
2017-08-23T14:21:21.258Z,3900
2017-08-23T14:22:01.802Z,3908
2017-08-23T14:22:42.339Z,3944
2017-08-23T14:23:22.880Z,3872
2017-08-23T14:24:03.410Z,3904
2017-08-23T14:24:43.954Z,4064
2017-08-23T14:25:24.513Z,4148
2017-08-23T14:26:05.059Z,4240
2017-08-23T14:26:45.605Z,4344
2017-08-23T14:27:26.149Z,4356
2017-08-23T14:28:06.693Z,4444
2017-08-23T14:28:47.225Z,4344
2017-08-23T14:29:27.757Z,4328
2017-08-23T14:30:08.309Z,4316
2017-08-23T14:30:48.829Z,4348
2017-08-23T14:31:29.368Z,4408
2017-08-23T14:32:09.906Z,4464
2017-08-23T14:32:50.447Z,4464
2017-08-23T14:33:30.997Z,4464
2017-08-23T14:34:11.536Z,4500
2017-08-23T14:34:52.085Z,4540
2017-08-23T14:35:32.632Z,4544
2017-08-23T14:36:13.174Z,4516
2017-08-23T14:36:53.719Z,4496
2017-08-23T14:37:34.258Z,4508
2017-08-23T14:38:14.807Z,4516
2017-08-23T14:38:55.347Z,4536
2017-08-23T14:39:35.887Z,4568
2017-08-23T14:40:16.428Z,4612
2017-08-23T14:40:56.970Z,4648
2017-08-23T14:41:37.520Z,4688
2017-08-23T14:42:18.069Z,4708
2017-08-23T14:42:58.621Z,4720
2017-08-23T14:43:39.170Z,4756
2017-08-23T14:44:19.695Z,4792
2017-08-23T14:45:00.210Z,4820
2017-08-23T14:45:40.741Z,4856
2017-08-23T14:46:21.284Z,4856
2017-08-23T14:47:01.823Z,4884
2017-08-23T14:47:42.362Z,4924
2017-08-23T14:48:22.914Z,4976
2017-08-23T14:49:03.458Z,5056
2017-08-23T14:49:44.001Z,5124
2017-08-23T14:50:24.539Z,5184
2017-08-23T14:51:05.134Z,5224
2017-08-23T14:51:45.675Z,5272
2017-08-23T14:52:26.226Z,5328
2017-08-23T14:53:06.777Z,5344
2017-08-23T14:53:47.331Z,5288
2017-08-23T14:54:27.873Z,5180
2017-08-23T14:55:08.406Z,4972
2017-08-23T14:55:48.947Z,4932
2017-08-23T14:56:29.474Z,4824
2017-08-23T14:57:10.013Z,4792
2017-08-23T14:57:50.545Z,4724
2017-08-23T14:58:31.089Z,4632
2017-08-23T14:59:11.636Z,4684
2017-08-23T14:59:52.189Z,4712
2017-08-23T15:00:32.736Z,4748
2017-08-23T15:01:13.286Z,4668
2017-08-23T15:01:53.838Z,4596
2017-08-23T15:02:34.381Z,4692
2017-08-23T15:03:14.913Z,4644
2017-08-23T15:03:55.463Z,4616
2017-08-23T15:04:36.016Z,4644
2017-08-23T15:05:16.555Z,4716
2017-08-23T15:05:57.107Z,4672
2017-08-23T15:06:37.625Z,4684
2017-08-23T15:07:18.165Z,4668
2017-08-23T15:07:58.718Z,4668
2017-08-23T15:08:39.250Z,4672
2017-08-23T15:09:19.781Z,4700
2017-08-23T15:10:00.346Z,4740
2017-08-23T15:10:40.902Z,4840
2017-08-23T15:11:21.439Z,4892
2017-08-23T15:12:02.034Z,4856
2017-08-23T15:12:42.576Z,4860
2017-08-23T15:13:23.134Z,4892
2017-08-23T15:14:03.676Z,4896
2017-08-23T15:14:44.215Z,4876
2017-08-23T15:15:25.610Z,5072
2017-08-23T15:16:06.216Z,5172
2017-08-23T15:16:46.750Z,5212
2017-08-23T15:17:27.318Z,5148
2017-08-23T15:18:07.861Z,5384
2017-08-23T15:18:48.446Z,5344
2017-08-23T15:19:28.905Z,5420
2017-08-23T15:20:09.443Z,5436
2017-08-23T15:20:50.004Z,5240
2017-08-23T15:21:30.610Z,5172
2017-08-23T15:22:11.190Z,5132
2017-08-23T15:22:51.746Z,4960
2017-08-23T15:23:32.351Z,4740
2017-08-23T15:24:12.876Z,4344
2017-08-23T15:24:53.417Z,4272
2017-08-23T15:25:33.968Z,4400
2017-08-23T15:26:14.607Z,4508
2017-08-23T15:26:55.215Z,4532
2017-08-23T15:27:35.747Z,4620
2017-08-23T15:28:17.235Z,4848
2017-08-23T15:28:58.324Z,4932
2017-08-23T15:29:38.900Z,4632
2017-08-23T15:30:19.600Z,4664
2017-08-23T15:30:59.960Z,4804
2017-08-23T15:31:40.427Z,4924
2017-08-23T15:32:20.954Z,4784
2017-08-23T15:33:01.511Z,4856
2017-08-23T15:33:44.991Z,4900
2017-08-23T15:34:27.176Z,4948
2017-08-23T15:35:07.726Z,4952
2017-08-23T15:35:48.271Z,4916
2017-08-23T15:36:28.833Z,4884
2017-08-23T15:37:09.373Z,4804
2017-08-23T15:37:49.900Z,4744
2017-08-23T15:38:30.436Z,4744
2017-08-23T15:39:10.972Z,4688
2017-08-23T15:39:51.509Z,4744
2017-08-23T15:40:32.034Z,4740
2017-08-23T15:41:12.574Z,4820
2017-08-23T15:41:53.124Z,4824
2017-08-23T15:42:33.690Z,4812
2017-08-23T15:43:14.219Z,4752
2017-08-23T15:43:54.765Z,4408
2017-08-23T15:44:35.294Z,4288
2017-08-23T15:45:15.824Z,4308
2017-08-23T15:45:56.350Z,4344
2017-08-23T15:46:36.878Z,4300
2017-08-23T15:47:17.400Z,4184
2017-08-23T15:47:57.944Z,4268
2017-08-23T15:48:38.529Z,4344
2017-08-23T15:49:19.064Z,4316
2017-08-23T15:49:59.596Z,4300
2017-08-23T15:50:40.227Z,4368
2017-08-23T15:51:20.744Z,4388
2017-08-23T15:52:01.287Z,4128
2017-08-23T15:52:41.827Z,3948
2017-08-23T15:53:22.375Z,3816
2017-08-23T15:54:02.923Z,3796
2017-08-23T15:54:43.467Z,3812
2017-08-23T15:55:24.039Z,3792
2017-08-23T15:56:04.578Z,3864
2017-08-23T15:56:45.112Z,3900
2017-08-23T15:57:25.674Z,3816
2017-08-23T15:58:06.220Z,3776
2017-08-23T15:58:46.748Z,3792
2017-08-23T15:59:27.278Z,3920
2017-08-23T16:00:07.815Z,3936
2017-08-23T16:00:48.369Z,3844
2017-08-23T16:01:28.918Z,3984
2017-08-23T16:02:09.504Z,4056
2017-08-23T16:02:50.083Z,3820
2017-08-23T16:03:30.627Z,3508
2017-08-23T16:04:11.169Z,3860
2017-08-23T16:04:51.701Z,3892
2017-08-23T16:05:32.263Z,3896
2017-08-23T16:06:12.810Z,3636
2017-08-23T16:06:53.356Z,3796
2017-08-23T16:07:33.908Z,3684
2017-08-23T16:08:14.447Z,3816
2017-08-23T16:08:54.985Z,3760
2017-08-23T16:09:35.539Z,3684
2017-08-23T16:10:16.109Z,3692
2017-08-23T16:10:56.673Z,3728
2017-08-23T16:11:37.224Z,3644
2017-08-23T16:12:17.769Z,3620
2017-08-23T16:12:58.449Z,3556
2017-08-23T16:13:38.986Z,3464
2017-08-23T16:14:19.525Z,3428
2017-08-23T16:15:00.085Z,3380
2017-08-23T16:15:40.651Z,2720
2017-08-23T16:16:21.205Z,2656
2017-08-23T16:17:01.756Z,3460
2017-08-23T16:17:42.315Z,3376
2017-08-23T16:18:22.816Z,3264
2017-08-23T16:19:03.420Z,3156
2017-08-23T16:19:43.966Z,3000
2017-08-23T16:20:24.524Z,2836
2017-08-23T16:21:05.065Z,2612
2017-08-23T16:21:45.631Z,2676
2017-08-23T16:22:26.177Z,2500
2017-08-23T16:23:06.722Z,2444
2017-08-23T16:23:47.267Z,2304
2017-08-23T16:24:27.801Z,2292
2017-08-23T16:25:08.361Z,2180
2017-08-23T16:25:48.912Z,2088
2017-08-23T16:26:29.460Z,2140
2017-08-23T16:27:10.001Z,2344
2017-08-23T16:27:50.526Z,2476
2017-08-23T16:28:31.059Z,2464
2017-08-23T16:29:11.601Z,2404
2017-08-23T16:29:52.127Z,2024
2017-08-23T16:30:32.665Z,2036
2017-08-23T16:31:13.202Z,2224
2017-08-23T16:31:53.746Z,2276
2017-08-23T16:32:34.280Z,2276
2017-08-23T16:33:14.832Z,2088
2017-08-23T16:33:55.366Z,2040
2017-08-23T16:34:35.905Z,2044
2017-08-23T16:35:16.454Z,2012
2017-08-23T16:35:57.028Z,1952
2017-08-23T16:36:37.558Z,1940
2017-08-23T16:37:18.095Z,2160
2017-08-23T16:37:58.638Z,2256
2017-08-23T16:38:39.219Z,2228
2017-08-23T16:39:19.767Z,2220
2017-08-23T16:40:02.908Z,2188
2017-08-23T16:40:46.125Z,2092
2017-08-23T16:41:26.647Z,2104
2017-08-23T16:42:07.179Z,2128
2017-08-23T16:42:47.675Z,2192
2017-08-23T16:43:28.251Z,2264
2017-08-23T16:44:08.790Z,2312
2017-08-23T16:44:49.329Z,2284
2017-08-23T16:45:29.870Z,2328
2017-08-23T16:46:10.400Z,2344
2017-08-23T16:46:50.938Z,2504
2017-08-23T16:47:31.476Z,2636
2017-08-23T16:48:12.011Z,2820
2017-08-23T16:48:52.560Z,2964
2017-08-23T16:49:33.093Z,3068
2017-08-23T16:50:14.169Z,2888
2017-08-23T16:50:54.691Z,2804
2017-08-23T16:51:35.216Z,2736
2017-08-23T16:52:15.754Z,2620
2017-08-23T16:52:56.290Z,2472
2017-08-23T16:53:36.830Z,2444
2017-08-23T16:54:17.377Z,2412
2017-08-23T16:54:57.923Z,2424
2017-08-23T16:55:38.469Z,2436
2017-08-23T16:56:19.011Z,2448
2017-08-23T16:56:59.554Z,2448
2017-08-23T16:57:40.058Z,2460
2017-08-23T16:58:20.583Z,2476
2017-08-23T16:59:01.100Z,2524
2017-08-23T16:59:41.646Z,2528
2017-08-23T17:00:22.190Z,2572
2017-08-23T17:01:02.711Z,2596
2017-08-23T17:01:43.245Z,2528
2017-08-23T17:02:23.774Z,2412
2017-08-23T17:03:04.330Z,2328
2017-08-23T17:03:44.865Z,2188
2017-08-23T17:04:25.380Z,2088
2017-08-23T17:05:05.921Z,2004
2017-08-23T17:05:46.472Z,1920
2017-08-23T17:06:26.983Z,1876
2017-08-23T17:07:07.511Z,1856
2017-08-23T17:07:48.043Z,1836
2017-08-23T17:08:28.608Z,1796
2017-08-23T17:09:09.148Z,1764
2017-08-23T17:09:49.681Z,1724
2017-08-23T17:10:30.218Z,1684
2017-08-23T17:11:10.759Z,1648
2017-08-23T17:11:51.297Z,1620
2017-08-23T17:12:31.815Z,1604
2017-08-23T17:13:12.369Z,1592
2017-08-23T17:13:52.862Z,1588
2017-08-23T17:14:33.406Z,1584
2017-08-23T17:15:13.949Z,1564
2017-08-23T17:15:54.491Z,1540
2017-08-23T17:16:35.002Z,1524
2017-08-23T17:17:15.531Z,1508
2017-08-23T17:17:56.056Z,1492
2017-08-23T17:18:36.602Z,1488
2017-08-23T17:19:17.146Z,1488
2017-08-23T17:19:57.704Z,1488
2017-08-23T17:20:38.238Z,1488
2017-08-23T17:21:18.796Z,1480
2017-08-23T17:21:59.328Z,1472
2017-08-23T17:22:39.869Z,1456
2017-08-23T17:23:20.415Z,1444
2017-08-23T17:24:00.955Z,1428
2017-08-23T17:24:41.495Z,1416
2017-08-23T17:25:22.052Z,1408
2017-08-23T17:26:02.600Z,1412
2017-08-23T17:26:43.122Z,1420
2017-08-23T17:27:23.660Z,1432
2017-08-23T17:28:04.207Z,1448
2017-08-23T17:28:44.777Z,1460
2017-08-23T17:29:25.320Z,1476
2017-08-23T17:30:05.868Z,1484
2017-08-23T17:30:46.428Z,1492
2017-08-23T17:31:26.962Z,1492
2017-08-23T17:32:07.516Z,1484
2017-08-23T17:32:48.065Z,1464
2017-08-23T17:33:28.602Z,1444
2017-08-23T17:34:09.150Z,1428
2017-08-23T17:34:49.704Z,1404
2017-08-23T17:35:30.233Z,1380
2017-08-23T17:36:10.796Z,1364
2017-08-23T17:36:51.344Z,1344
2017-08-23T17:37:31.877Z,1332
2017-08-23T17:38:12.420Z,1324
2017-08-23T17:38:52.960Z,1320
2017-08-23T17:39:33.489Z,1316
2017-08-23T17:40:14.025Z,1308
2017-08-23T17:40:54.572Z,1296
2017-08-23T17:41:35.107Z,1272
2017-08-23T17:42:15.706Z,1232
2017-08-23T17:42:56.249Z,1196
2017-08-23T17:43:36.782Z,1156
2017-08-23T17:44:17.326Z,1112
2017-08-23T17:44:57.876Z,1064
2017-08-23T17:45:38.419Z,1028
2017-08-23T17:46:19.297Z,988
2017-08-23T17:46:59.834Z,948
2017-08-23T17:47:40.375Z,908
2017-08-23T17:48:20.905Z,864
2017-08-23T17:49:01.556Z,828
2017-08-23T17:49:42.106Z,792
2017-08-23T17:50:22.690Z,756
2017-08-23T17:51:03.242Z,720
2017-08-23T17:51:43.786Z,692
2017-08-23T17:52:24.323Z,676
2017-08-23T17:53:04.870Z,668
2017-08-23T17:53:45.411Z,656
2017-08-23T17:54:25.961Z,640
2017-08-23T17:55:06.506Z,612
2017-08-23T17:55:47.049Z,584
2017-08-23T17:56:27.591Z,556
2017-08-23T17:57:08.135Z,532
2017-08-23T17:57:48.663Z,512
2017-08-23T17:58:29.211Z,496
2017-08-23T17:59:09.751Z,480
2017-08-23T17:59:50.287Z,464
2017-08-23T18:00:30.822Z,448
2017-08-23T18:01:11.359Z,436
2017-08-23T18:01:51.899Z,428
2017-08-23T18:02:32.433Z,408
2017-08-23T18:03:12.980Z,396
2017-08-23T18:03:53.513Z,380
2017-08-23T18:04:34.196Z,372
2017-08-23T18:05:14.727Z,360
2017-08-23T18:05:55.331Z,352
2017-08-23T18:06:35.859Z,348
2017-08-23T18:07:16.464Z,340
2017-08-23T18:07:57.031Z,336
2017-08-23T18:08:37.578Z,332
2017-08-23T18:09:18.128Z,324
2017-08-23T18:09:58.636Z,316
2017-08-23T18:10:39.194Z,300
2017-08-23T18:11:19.752Z,284
2017-08-23T18:12:00.330Z,272
2017-08-23T18:12:40.874Z,256
2017-08-23T18:13:21.416Z,248
2017-08-23T18:14:02.021Z,236
2017-08-23T18:14:42.553Z,224
2017-08-23T18:15:23.156Z,216
2017-08-23T18:16:03.694Z,208
2017-08-23T18:16:44.244Z,200
2017-08-23T18:17:24.843Z,188
2017-08-23T18:18:05.389Z,184
2017-08-23T18:18:45.935Z,176
2017-08-23T18:19:26.477Z,168
2017-08-23T18:20:07.015Z,160
2017-08-23T18:20:47.563Z,152
2017-08-23T18:21:28.105Z,144
2017-08-23T18:22:08.650Z,136
2017-08-23T18:22:49.189Z,128
2017-08-23T18:23:29.730Z,120
2017-08-23T18:24:10.272Z,112
2017-08-23T18:24:50.811Z,112
2017-08-23T18:25:31.357Z,104
2017-08-23T18:26:11.899Z,100
2017-08-23T18:26:52.445Z,92
2017-08-23T18:27:32.990Z,88
2017-08-23T18:28:13.563Z,84
2017-08-23T18:28:54.129Z,76
2017-08-23T18:29:34.671Z,72
2017-08-23T18:30:15.204Z,64
2017-08-23T18:30:55.759Z,64
2017-08-23T18:31:36.302Z,60
2017-08-23T18:32:16.837Z,60
2017-08-23T18:32:57.381Z,56
2017-08-23T18:33:37.915Z,52
2017-08-23T18:34:18.453Z,52
2017-08-23T18:34:59.009Z,48
2017-08-23T18:35:39.521Z,44
2017-08-23T18:36:20.064Z,44
2017-08-23T18:37:00.688Z,40
2017-08-23T18:37:41.233Z,40
2017-08-23T18:38:21.783Z,36
2017-08-23T18:39:02.312Z,36
2017-08-23T18:39:42.843Z,32
2017-08-23T18:40:23.381Z,32
2017-08-23T18:41:03.919Z,28
2017-08-23T18:41:44.458Z,28
2017-08-23T18:42:24.999Z,24
2017-08-23T18:43:05.532Z,24
2017-08-23T18:43:46.070Z,24
2017-08-23T18:44:26.622Z,16
2017-08-23T18:45:07.144Z,16
2017-08-23T18:45:47.686Z,12
2017-08-23T18:46:28.230Z,12
2017-08-23T18:47:08.768Z,12
2017-08-23T18:47:49.314Z,12
2017-08-23T18:48:29.856Z,8
2017-08-23T18:49:10.392Z,8
2017-08-23T18:49:50.928Z,8
2017-08-23T18:50:31.481Z,4
2017-08-23T18:51:11.988Z,8
2017-08-23T18:51:52.524Z,8
2017-08-23T18:52:33.488Z,4
2017-08-23T18:53:14.026Z,4
2017-08-23T18:53:54.568Z,4
2017-08-23T18:54:35.099Z,4
2017-08-23T18:55:15.652Z,4
2017-08-23T18:55:56.207Z,4
2017-08-23T18:56:36.749Z,4
2017-08-23T18:57:17.769Z,4
2017-08-23T18:57:58.470Z,4
2017-08-23T18:58:39.107Z,0
2017-08-23T18:59:19.953Z,0
2017-08-23T19:00:00.716Z,0
2017-08-23T19:01:10.479Z,0
2017-08-23T19:02:06.917Z,0
2017-08-23T19:02:48.322Z,0
2017-08-23T19:03:28.857Z,0
2017-08-23T19:04:09.697Z,0
2017-08-23T19:04:50.980Z,0
2017-08-23T19:05:31.558Z,0
2017-08-23T19:06:12.052Z,0
2017-08-23T19:06:52.589Z,0
2017-08-23T19:07:33.132Z,0
2017-08-23T19:08:13.671Z,0
2017-08-23T19:08:54.209Z,0
2017-08-23T19:09:34.750Z,0
2017-08-23T19:10:15.289Z,0
2017-08-23T19:10:55.827Z,0
2017-08-23T19:11:36.369Z,0
2017-08-23T19:12:16.912Z,0
2017-08-23T19:12:57.460Z,0
2017-08-23T19:13:38.000Z,0
2017-08-23T19:14:18.537Z,0
2017-08-23T19:14:59.079Z,0
2017-08-23T19:15:39.611Z,0
2017-08-23T19:16:20.148Z,0
2017-08-23T19:17:00.687Z,0
2017-08-23T19:17:41.222Z,0
2017-08-23T19:18:21.755Z,0
2017-08-23T19:19:02.313Z,0
2017-08-23T19:19:43.033Z,0
2017-08-23T19:20:23.627Z,0
2017-08-23T19:21:04.161Z,0
2017-08-23T19:21:44.708Z,0
2017-08-23T19:22:25.229Z,0
2017-08-23T19:23:05.759Z,0
2017-08-23T19:23:46.383Z,0
2017-08-23T19:24:26.936Z,0
2017-08-23T19:25:07.480Z,0
2017-08-23T19:25:48.177Z,0
2017-08-23T19:26:28.709Z,0
2017-08-23T19:27:09.254Z,0
2017-08-23T19:27:49.808Z,0
2017-08-23T19:28:30.347Z,0
2017-08-23T19:29:10.885Z,0
2017-08-23T19:29:51.423Z,0
2017-08-23T19:30:31.966Z,0
2017-08-23T19:31:12.504Z,0
2017-08-23T19:31:53.041Z,0
2017-08-23T19:32:33.582Z,0
2017-08-23T19:33:14.120Z,0
2017-08-23T19:33:54.660Z,0
2017-08-23T19:34:35.206Z,0
2017-08-23T19:35:15.740Z,0
2017-08-23T19:35:56.278Z,0
2017-08-23T19:36:36.829Z,0
2017-08-23T19:37:17.378Z,0
2017-08-23T19:37:57.913Z,0
2017-08-23T19:38:38.456Z,0
2017-08-23T19:39:18.992Z,0
2017-08-23T19:39:59.530Z,0
2017-08-23T19:40:40.070Z,0
2017-08-23T19:41:20.617Z,0
2017-08-23T19:42:01.158Z,0
2017-08-23T19:42:41.697Z,0
2017-08-23T19:43:22.266Z,0
2017-08-23T19:44:02.872Z,0
2017-08-23T19:44:43.399Z,0
2017-08-23T19:45:23.939Z,0
2017-08-23T19:46:04.475Z,0
2017-08-23T19:46:45.012Z,0
2017-08-23T19:47:25.561Z,0
2017-08-23T19:48:06.094Z,0
2017-08-23T19:48:46.655Z,0
2017-08-23T19:49:27.276Z,0
2017-08-23T19:50:07.791Z,0
2017-08-23T19:50:48.407Z,0
2017-08-23T19:51:28.964Z,0
2017-08-23T19:52:09.606Z,0
2017-08-23T19:52:50.189Z,0
2017-08-23T19:53:30.732Z,0
2017-08-23T19:54:11.265Z,0
2017-08-23T19:54:51.803Z,0
2017-08-23T19:55:32.339Z,0
2017-08-23T19:56:12.880Z,0
2017-08-23T19:56:53.470Z,0
2017-08-23T19:57:33.966Z,0
2017-08-23T19:58:14.502Z,0
2017-08-23T19:58:55.044Z,0
2017-08-23T19:59:35.587Z,0
2017-08-23T20:00:16.122Z,0
2017-08-23T20:00:56.662Z,0
2017-08-23T20:01:37.206Z,0
2017-08-23T20:02:17.735Z,0